createdAt,value
2019-04-26T00:00:57.583Z,52.50
2019-04-26T00:03:42.278Z,50.40
2019-04-26T00:06:12.834Z,52.40
2019-04-26T00:08:44.430Z,51.10
2019-04-26T00:11:24.148Z,49.90
2019-04-26T00:14:22.820Z,52.10
2019-04-26T00:16:56.210Z,52.30
2019-04-26T00:19:25.928Z,52.60
2019-04-26T00:21:55.636Z,52.60
2019-04-26T00:24:28.281Z,51.40
2019-04-26T00:26:56.864Z,53.40
2019-04-26T00:29:26.360Z,53.10
2019-04-26T00:31:55.840Z,52.60
2019-04-26T00:34:25.354Z,52.30
2019-04-26T00:36:54.823Z,52.30
2019-04-26T00:39:25.075Z,52.30
2019-04-26T00:41:54.707Z,52.30
2019-04-26T00:44:24.325Z,52.40
2019-04-26T00:46:56.831Z,52.40
2019-04-26T00:49:27.807Z,52.40
2019-04-26T00:51:57.988Z,52.50
2019-04-26T00:54:27.986Z,53.00
2019-04-26T00:56:58.329Z,52.70
2019-04-26T00:59:28.495Z,52.80
2019-04-26T01:02:03.882Z,52.90
2019-04-26T01:04:33.338Z,52.80
2019-04-26T01:07:03.002Z,52.80
2019-04-26T01:09:32.666Z,53.10
2019-04-26T01:12:02.105Z,53.30
2019-04-26T01:14:31.573Z,52.40
2019-04-26T01:17:01.018Z,54.10
2019-04-26T01:19:31.782Z,55.00
2019-04-26T01:22:04.763Z,55.60
2019-04-26T01:24:36.144Z,51.30
2019-04-26T01:27:07.008Z,55.30
2019-04-26T01:29:38.669Z,55.80
2019-04-26T01:32:11.617Z,54.50
2019-04-26T01:37:33.133Z,55.30
2019-04-26T01:40:07.937Z,57.20
2019-04-26T01:42:54.746Z,55.60
2019-04-26T01:45:51.284Z,54.50
2019-04-26T01:48:49.697Z,54.20
2019-04-26T01:51:26.567Z,54.80
2019-04-26T01:53:56.678Z,54.70
2019-04-26T01:56:31.387Z,54.40
2019-04-26T01:59:01.079Z,54.30
2019-04-26T02:01:48.544Z,54.40
2019-04-26T02:04:18.380Z,54.50
2019-04-26T02:06:47.865Z,54.40
2019-04-26T02:09:17.797Z,54.50
2019-04-26T02:11:47.532Z,54.80
2019-04-26T02:14:17.225Z,54.80
2019-04-26T02:16:46.877Z,54.80
2019-04-26T02:19:16.351Z,55.30
2019-04-26T02:21:57.727Z,55.20
2019-04-26T02:24:30.845Z,55.30
2019-04-26T02:27:03.082Z,55.50
2019-04-26T02:29:32.704Z,55.50
2019-04-26T02:32:05.363Z,55.50
2019-04-26T02:34:37.993Z,55.60
2019-04-26T02:37:11.009Z,55.70
2019-04-26T02:39:41.801Z,55.90
2019-04-26T02:42:28.717Z,56.10
2019-04-26T02:45:28.906Z,56.40
2019-04-26T02:48:37.423Z,56.30
2019-04-26T02:51:12.413Z,56.30
2019-04-26T02:53:59.714Z,56.40
2019-04-26T02:56:40.000Z,56.60
2019-04-26T02:59:44.448Z,56.70
2019-04-26T03:02:26.520Z,56.80
2019-04-26T03:05:04.487Z,57.00
2019-04-26T03:07:59.438Z,57.20
2019-04-26T03:10:40.627Z,57.40
2019-04-26T03:13:19.287Z,57.50
2019-04-26T03:16:20.249Z,57.60
2019-04-26T03:18:58.393Z,57.80
2019-04-26T03:21:44.487Z,57.80
2019-04-26T03:24:23.308Z,58.30
2019-04-26T03:27:25.896Z,58.40
2019-04-26T03:30:22.306Z,58.60
2019-04-26T03:33:04.285Z,58.70
2019-04-26T03:36:07.970Z,58.80
2019-04-26T03:38:50.557Z,58.90
2019-04-26T03:42:09.084Z,59.10
2019-04-26T03:44:44.992Z,59.50
2019-04-26T03:47:19.927Z,59.70
2019-04-26T03:50:12.843Z,59.80
2019-04-26T03:53:40.465Z,60.40
2019-04-26T03:57:00.029Z,60.40
2019-04-26T03:59:57.242Z,61.70
2019-04-26T04:03:06.639Z,61.50
2019-04-26T04:05:45.597Z,61.50
2019-04-26T04:08:21.417Z,61.60
2019-04-26T04:10:57.397Z,61.80
2019-04-26T04:13:51.532Z,62.30
2019-04-26T04:17:05.539Z,62.30
2019-04-26T04:20:13.514Z,64.40
2019-04-26T04:22:47.869Z,63.50
2019-04-26T04:25:25.405Z,64.30
2019-04-26T04:28:03.289Z,63.90
2019-04-26T04:30:56.669Z,63.70
2019-04-26T04:34:15.867Z,64.30
2019-04-26T04:36:51.397Z,64.20
2019-04-26T04:39:44.852Z,64.20
2019-04-26T04:42:52.466Z,64.80
2019-04-26T04:45:59.426Z,64.70
2019-04-26T04:49:04.734Z,65.70
2019-04-26T04:52:19.052Z,65.90
2019-04-26T04:55:06.471Z,65.80
2019-04-26T04:58:04.934Z,65.40
2019-04-26T05:01:38.900Z,65.10
2019-04-26T05:04:19.566Z,64.70
2019-04-26T05:07:22.920Z,64.60
2019-04-26T05:10:09.108Z,65.80
2019-04-26T05:12:54.894Z,64.90
2019-04-26T05:15:55.089Z,65.10
2019-04-26T05:19:02.828Z,65.60
2019-04-26T05:21:42.355Z,64.80
2019-04-26T05:24:43.254Z,66.10
2019-04-26T05:27:48.279Z,65.40
2019-04-26T05:31:02.717Z,65.30
2019-04-26T05:34:14.329Z,64.50
2019-04-26T05:37:30.256Z,63.90
2019-04-26T05:40:14.899Z,64.20
2019-04-26T05:43:24.816Z,65.40
2019-04-26T05:46:25.392Z,66.30
2019-04-26T05:49:38.258Z,63.70
2019-04-26T05:52:44.157Z,63.90
2019-04-26T05:56:00.063Z,63.00
2019-04-26T05:59:08.559Z,63.70
2019-04-26T06:02:28.983Z,63.70
2019-04-26T06:05:37.708Z,64.90
2019-04-26T06:08:49.007Z,62.70
2019-04-26T06:11:29.111Z,63.20
2019-04-26T06:14:48.415Z,63.80
2019-04-26T06:17:47.434Z,65.10
2019-04-26T06:20:34.903Z,65.40
2019-04-26T06:23:46.430Z,65.60
2019-04-26T06:26:44.066Z,68.40
2019-04-26T06:29:22.852Z,66.40
2019-04-26T06:32:04.705Z,68.20
2019-04-26T06:34:48.855Z,66.60
2019-04-26T06:37:30.168Z,67.60
2019-04-26T06:40:16.617Z,67.00
2019-04-26T06:43:42.537Z,66.40
2019-04-26T06:47:06.595Z,66.00
2019-04-26T06:50:28.204Z,68.70
2019-04-26T06:53:24.335Z,69.30
2019-04-26T06:56:12.933Z,72.40
2019-04-26T06:59:36.632Z,68.20
2019-04-26T07:02:24.620Z,67.50
2019-04-26T07:05:19.659Z,67.00
2019-04-26T07:08:13.304Z,67.00
2019-04-26T07:11:30.102Z,66.60
2019-04-26T07:14:26.774Z,67.80
2019-04-26T07:17:09.961Z,67.80
2019-04-26T07:20:28.495Z,70.30
2019-04-26T07:24:03.863Z,67.50
2019-04-26T07:27:22.546Z,67.40
2019-04-26T07:30:23.267Z,66.40
2019-04-26T07:33:14.878Z,66.60
2019-04-26T07:36:23.026Z,66.30
2019-04-26T07:39:25.024Z,67.30
2019-04-26T07:42:53.463Z,67.10
2019-04-26T07:45:47.892Z,66.50
2019-04-26T07:48:54.833Z,66.00
2019-04-26T07:52:00.449Z,66.60
2019-04-26T07:55:12.811Z,67.60
2019-04-26T07:58:25.412Z,65.90
2019-04-26T08:01:15.047Z,66.70
2019-04-26T08:03:56.882Z,68.10
2019-04-26T08:06:57.307Z,67.00
2019-04-26T08:09:29.072Z,68.00
2019-04-26T08:12:05.004Z,67.90
2019-04-26T08:15:29.407Z,66.80
2019-04-26T08:18:15.930Z,66.50
2019-04-26T08:20:57.302Z,66.40
2019-04-26T08:23:41.364Z,66.50
2019-04-26T08:26:13.400Z,66.80
2019-04-26T08:28:45.037Z,66.60
2019-04-26T08:31:20.026Z,66.90
2019-04-26T08:33:57.145Z,68.10
2019-04-26T08:36:31.513Z,67.80
2019-04-26T08:39:02.081Z,70.10
2019-04-26T08:41:35.175Z,68.30
2019-04-26T08:44:24.702Z,67.60
2019-04-26T08:47:24.019Z,66.90
2019-04-26T08:50:13.702Z,68.10
2019-04-26T08:52:46.393Z,68.40
2019-04-26T08:55:19.137Z,68.40
2019-04-26T08:57:52.201Z,67.80
2019-04-26T09:00:40.987Z,69.80
2019-04-26T09:03:43.519Z,69.10
2019-04-26T09:06:21.151Z,69.30
2019-04-26T09:08:54.429Z,68.90
2019-04-26T09:11:30.113Z,69.20
2019-04-26T09:14:00.170Z,70.00
2019-04-26T09:16:30.261Z,69.30
2019-04-26T09:19:00.216Z,68.90
2019-04-26T09:22:12.683Z,68.90
2019-04-26T09:24:42.012Z,68.80
2019-04-26T09:27:20.918Z,68.60
2019-04-26T09:30:04.923Z,68.50
2019-04-26T09:32:41.571Z,70.00
2019-04-26T09:35:15.134Z,69.40
2019-04-26T09:37:43.008Z,68.70
2019-04-26T09:40:21.010Z,68.40
2019-04-26T09:43:10.506Z,71.30
2019-04-26T09:46:03.182Z,69.30
2019-04-26T09:48:52.217Z,68.60
2019-04-26T09:51:22.504Z,68.90
2019-04-26T09:53:52.388Z,69.00
2019-04-26T09:56:22.644Z,68.50
2019-04-26T09:58:52.483Z,68.20
2019-04-26T10:01:24.234Z,68.10
2019-04-26T10:03:54.021Z,68.30
2019-04-26T10:06:26.131Z,69.00
2019-04-26T10:08:55.500Z,69.70
2019-04-26T10:11:27.726Z,70.10
2019-04-26T10:14:03.662Z,71.80
2019-04-26T10:16:52.424Z,72.30
2019-04-26T10:19:47.358Z,70.10
2019-04-26T10:22:18.139Z,69.80
2019-04-26T10:24:48.149Z,69.20
2019-04-26T10:27:18.306Z,72.40
2019-04-26T10:29:48.241Z,69.90
2019-04-26T10:32:21.814Z,71.70
2019-04-26T10:34:49.666Z,72.20
2019-04-26T10:37:19.371Z,69.80
2019-04-26T10:39:49.161Z,70.00
2019-04-26T10:42:19.302Z,70.60
2019-04-26T10:44:49.031Z,70.30
2019-04-26T10:47:18.987Z,69.80
2019-04-26T10:49:49.224Z,70.70
2019-04-26T10:52:35.584Z,70.80
2019-04-26T10:55:17.489Z,70.20
2019-04-26T10:57:48.203Z,71.40
2019-04-26T11:00:27.128Z,72.80
2019-04-26T11:03:00.035Z,71.40
2019-04-26T11:05:29.267Z,71.70
2019-04-26T11:07:59.335Z,71.60
2019-04-26T11:10:29.912Z,70.50
2019-04-26T11:12:59.775Z,70.60
2019-04-26T11:15:32.603Z,71.70
2019-04-26T11:18:01.261Z,70.50
2019-04-26T11:20:31.021Z,71.70
2019-04-26T11:23:00.796Z,71.70
2019-04-26T11:25:31.239Z,73.00
2019-04-26T11:28:01.658Z,72.80
2019-04-26T11:30:32.009Z,72.20
2019-04-26T11:33:01.726Z,72.00
2019-04-26T11:35:34.853Z,73.90
2019-04-26T11:38:04.920Z,74.00
2019-04-26T11:40:35.057Z,73.80
2019-04-26T11:43:05.284Z,75.30
2019-04-26T11:45:35.341Z,74.50
2019-04-26T11:48:05.867Z,76.10
2019-04-26T11:50:35.462Z,74.80
2019-04-26T11:53:06.153Z,75.20
2019-04-26T11:55:36.863Z,75.60
2019-04-26T11:58:06.835Z,75.40
2019-04-26T12:00:41.878Z,75.60
2019-04-26T12:03:12.052Z,76.10
2019-04-26T12:06:00.858Z,75.80
2019-04-26T12:08:42.775Z,75.40
2019-04-26T12:11:18.656Z,75.80
2019-04-26T12:13:44.226Z,76.50
2019-04-26T12:16:14.571Z,76.40
2019-04-26T12:18:45.816Z,76.70
2019-04-26T12:21:15.416Z,77.90
2019-04-26T12:23:45.306Z,77.90
2019-04-26T12:26:17.455Z,76.90
2019-04-26T12:28:46.810Z,79.60
2019-04-26T12:31:16.807Z,78.40
2019-04-26T12:33:46.411Z,77.40
2019-04-26T12:36:16.347Z,78.20
2019-04-26T12:38:46.255Z,78.20
2019-04-26T12:41:17.164Z,80.00
2019-04-26T12:43:49.481Z,80.10
2019-04-26T12:46:34.520Z,80.70
2019-04-26T12:49:04.550Z,82.80
2019-04-26T12:51:34.439Z,81.60
2019-04-26T12:54:08.397Z,83.00
2019-04-26T12:56:35.642Z,85.60
2019-04-26T12:59:05.540Z,83.20
2019-04-26T13:01:35.638Z,85.80
2019-04-26T13:04:07.089Z,85.30
2019-04-26T13:06:45.565Z,84.50
2019-04-26T13:09:21.725Z,85.10
2019-04-26T13:12:14.669Z,84.60
2019-04-26T13:15:03.457Z,84.50
2019-04-26T13:17:55.353Z,86.00
2019-04-26T13:20:28.735Z,85.40
2019-04-26T13:22:56.722Z,87.30
2019-04-26T13:25:30.450Z,86.30
2019-04-26T13:27:58.376Z,85.70
2019-04-26T13:30:33.130Z,85.40
2019-04-26T13:33:00.051Z,85.70
2019-04-26T13:35:29.923Z,85.80
2019-04-26T13:37:59.853Z,86.30
2019-04-26T13:40:30.535Z,87.90
2019-04-26T13:43:00.391Z,88.20
2019-04-26T13:45:49.821Z,87.30
2019-04-26T13:48:27.661Z,85.70
2019-04-26T13:51:02.810Z,85.80
2019-04-26T13:53:33.469Z,86.90
2019-04-26T13:56:03.432Z,85.40
2019-04-26T13:58:32.921Z,85.20
2019-04-26T14:01:04.046Z,85.00
2019-04-26T14:03:35.425Z,85.80
2019-04-26T14:06:05.160Z,85.10
2019-04-26T14:08:35.619Z,85.50
2019-04-26T14:11:05.752Z,83.60
2019-04-26T14:13:35.165Z,85.20
2019-04-26T14:16:05.633Z,84.80
2019-04-26T14:18:38.970Z,84.50
2019-04-26T14:21:06.997Z,83.80
2019-04-26T14:23:55.366Z,84.10
2019-04-26T14:26:29.212Z,83.80
2019-04-26T14:28:59.757Z,84.50
2019-04-26T14:31:29.353Z,83.90
2019-04-26T14:34:01.307Z,83.50
2019-04-26T14:36:29.990Z,83.10
2019-04-26T14:39:06.016Z,82.60
2019-04-26T14:41:32.221Z,83.60
2019-04-26T14:44:14.824Z,83.60
2019-04-26T14:46:32.985Z,82.90
2019-04-26T14:49:05.583Z,83.20
2019-04-26T14:51:33.955Z,84.60
2019-04-26T14:54:03.497Z,83.90
2019-04-26T14:56:32.981Z,83.30
2019-04-26T14:59:08.114Z,83.30
2019-04-26T15:01:55.822Z,82.80
2019-04-26T15:04:38.389Z,83.70
2019-04-26T15:07:07.861Z,83.20
2019-04-26T15:09:37.309Z,83.50
2019-04-26T15:12:07.680Z,83.60
2019-04-26T15:14:37.914Z,84.90
2019-04-26T15:17:07.370Z,84.60
2019-04-26T15:19:40.262Z,85.40
2019-04-26T15:22:10.466Z,86.00
2019-04-26T15:24:39.125Z,85.30
2019-04-26T15:27:08.594Z,85.50
2019-04-26T15:29:38.061Z,85.60
2019-04-26T15:32:07.567Z,85.90
2019-04-26T15:34:37.013Z,86.60
2019-04-26T15:37:06.594Z,86.50
2019-04-26T15:39:58.180Z,86.90
2019-04-26T15:42:58.745Z,86.90
2019-04-26T15:45:38.641Z,86.70
2019-04-26T15:48:23.038Z,87.00
2019-04-26T15:50:53.962Z,87.20
2019-04-26T15:53:23.921Z,87.40
2019-04-26T15:55:53.713Z,87.50
2019-04-26T15:58:23.198Z,88.00
2019-04-26T16:00:52.904Z,88.00
2019-04-26T16:03:22.836Z,88.10
2019-04-26T16:05:54.182Z,88.00
2019-04-26T16:08:23.716Z,88.50
2019-04-26T16:10:53.304Z,88.00
2019-04-26T16:13:24.168Z,87.70
2019-04-26T16:15:53.813Z,88.30
2019-04-26T16:18:23.296Z,88.00
2019-04-26T16:20:53.315Z,87.80
2019-04-26T16:23:24.264Z,87.80
2019-04-26T16:25:53.889Z,88.20
2019-04-26T16:28:57.715Z,88.60
2019-04-26T16:31:46.071Z,88.40
2019-04-26T16:34:16.483Z,88.50
2019-04-26T16:36:46.177Z,88.60
2019-04-26T16:39:15.942Z,88.70
2019-04-26T16:41:45.447Z,88.60
2019-04-26T16:44:18.525Z,88.60
2019-04-26T16:46:46.034Z,88.70
2019-04-26T16:49:15.481Z,89.20
2019-04-26T16:51:44.955Z,89.00
2019-04-26T16:54:20.969Z,88.80
2019-04-26T16:56:45.661Z,88.90
2019-04-26T16:59:22.417Z,89.00
2019-04-26T17:01:47.583Z,89.00
2019-04-26T17:04:20.040Z,89.00
2019-04-26T17:06:48.288Z,88.90
2019-04-26T17:09:17.836Z,88.90
2019-04-26T17:11:48.717Z,89.00
2019-04-26T17:14:18.207Z,89.40
2019-04-26T17:16:47.646Z,90.00
2019-04-26T17:19:19.727Z,90.00
2019-04-26T17:21:56.615Z,89.90
2019-04-26T17:24:46.238Z,90.00
2019-04-26T17:27:15.642Z,90.00
2019-04-26T17:29:46.529Z,90.00
2019-04-26T17:32:17.463Z,90.10
2019-04-26T17:34:47.141Z,90.00
2019-04-26T17:37:17.399Z,90.10
2019-04-26T17:39:47.500Z,90.20
2019-04-26T17:42:18.299Z,90.20
2019-04-26T17:44:47.776Z,90.20
2019-04-26T17:47:17.226Z,90.10
2019-04-26T17:49:46.697Z,90.00
2019-04-26T17:52:16.146Z,90.10
2019-04-26T17:54:52.498Z,89.90
2019-04-26T17:57:16.820Z,90.00
2019-04-26T17:59:49.032Z,89.90
2019-04-26T18:02:25.881Z,89.90
2019-04-26T18:04:58.863Z,90.00
2019-04-26T18:07:37.669Z,90.00
2019-04-26T18:09:52.562Z,90.10
2019-04-26T18:12:22.138Z,90.00
2019-04-26T18:14:53.063Z,90.00
2019-04-26T18:17:50.734Z,90.20
2019-04-26T18:20:43.072Z,90.10
2019-04-26T18:23:18.445Z,90.10
2019-04-26T18:25:46.503Z,90.00
2019-04-26T18:28:16.597Z,90.00
2019-04-26T18:30:47.678Z,90.00
2019-04-26T18:33:21.408Z,90.10
2019-04-26T18:35:49.311Z,90.10
2019-04-26T18:38:21.097Z,90.10
2019-04-26T18:41:00.952Z,90.00
2019-04-26T18:43:24.163Z,90.00
2019-04-26T18:45:54.403Z,90.00
2019-04-26T18:48:23.844Z,90.00
2019-04-26T18:50:53.393Z,90.10
2019-04-26T18:53:40.706Z,90.20
2019-04-26T18:56:10.455Z,90.10
2019-04-26T18:58:39.877Z,90.20
2019-04-26T19:01:11.050Z,90.50
2019-04-26T19:03:40.578Z,90.10
2019-04-26T19:06:10.045Z,90.10
2019-04-26T19:08:47.842Z,90.10
2019-04-26T19:11:11.854Z,90.00
2019-04-26T19:14:19.117Z,90.10
2019-04-26T19:17:03.423Z,90.10
2019-04-26T19:19:41.875Z,90.10
2019-04-26T19:22:15.523Z,90.10
2019-04-26T19:24:42.497Z,90.20
2019-04-26T19:27:12.476Z,90.20
2019-04-26T19:29:43.348Z,90.30
2019-04-26T19:32:12.880Z,90.30
2019-04-26T19:34:42.339Z,90.20
2019-04-26T19:37:11.985Z,90.30
2019-04-26T19:39:42.705Z,90.30
2019-04-26T19:42:12.186Z,90.30
2019-04-26T19:44:42.105Z,90.30
2019-04-26T19:47:22.711Z,90.30
2019-04-26T19:50:11.790Z,90.40
2019-04-26T19:53:10.335Z,90.40
2019-04-26T19:55:54.970Z,90.30
2019-04-26T19:58:28.082Z,90.40
2019-04-26T20:00:57.683Z,90.30
2019-04-26T20:03:27.241Z,90.50
2019-04-26T20:05:56.796Z,90.50
2019-04-26T20:08:26.260Z,90.50
2019-04-26T20:10:55.726Z,90.50
2019-04-26T20:13:25.233Z,90.50
2019-04-26T20:15:57.403Z,90.60
2019-04-26T20:18:25.796Z,90.60
2019-04-26T20:20:57.077Z,90.60
2019-04-26T20:23:26.589Z,90.60
2019-04-26T20:25:56.071Z,90.60
2019-04-26T20:28:25.539Z,90.60
2019-04-26T20:31:07.692Z,90.60
2019-04-26T20:33:36.033Z,90.60
2019-04-26T20:36:05.677Z,90.60
2019-04-26T20:38:42.585Z,90.60
2019-04-26T20:41:06.369Z,90.70
2019-04-26T20:43:36.329Z,90.70
2019-04-26T20:46:14.087Z,90.70
2019-04-26T20:48:39.611Z,90.80
2019-04-26T20:51:10.897Z,90.80
2019-04-26T20:53:43.477Z,90.80
2019-04-26T20:56:16.693Z,90.90
2019-04-26T20:58:46.848Z,90.90
2019-04-26T21:01:14.344Z,90.90
2019-04-26T21:03:45.980Z,91.10
2019-04-26T21:06:15.235Z,91.00
2019-04-26T21:08:44.706Z,91.00
2019-04-26T21:11:14.278Z,91.00
2019-04-26T21:13:43.778Z,91.10
2019-04-26T21:16:15.452Z,91.20
2019-04-26T21:18:44.625Z,91.10
2019-04-26T21:21:15.986Z,91.10
2019-04-26T21:23:47.007Z,91.20
2019-04-26T21:26:26.886Z,91.20
2019-04-26T21:29:24.127Z,91.20
2019-04-26T21:31:59.541Z,91.30
2019-04-26T21:34:34.429Z,91.30
2019-04-26T21:37:31.365Z,91.30
2019-04-26T21:40:16.929Z,91.40
2019-04-26T21:42:45.324Z,91.40
2019-04-26T21:45:14.884Z,91.40
2019-04-26T21:47:44.355Z,91.40
2019-04-26T21:50:13.802Z,91.50
2019-04-26T21:52:45.402Z,91.50
2019-04-26T21:55:16.643Z,91.60
2019-04-26T21:57:45.520Z,91.60
2019-04-26T22:00:36.314Z,91.60
2019-04-26T22:03:07.898Z,91.50
2019-04-26T22:05:37.012Z,91.60
2019-04-26T22:08:06.578Z,91.60
2019-04-26T22:10:43.759Z,91.70
2019-04-26T22:13:19.093Z,91.60
2019-04-26T22:16:31.977Z,91.70
2019-04-26T22:19:00.147Z,91.70
2019-04-26T22:21:59.436Z,91.80
2019-04-26T22:24:31.262Z,91.70
2019-04-26T22:27:00.745Z,91.70
2019-04-26T22:29:30.231Z,91.80
2019-04-26T22:31:59.672Z,91.90
2019-04-26T22:34:29.179Z,91.80
2019-04-26T22:37:01.345Z,91.90
2019-04-26T22:39:32.684Z,91.80
2019-04-26T22:42:02.819Z,91.90
2019-04-26T22:44:37.014Z,92.00
2019-04-26T22:47:11.232Z,91.90
2019-04-26T22:49:44.923Z,92.10
2019-04-26T22:52:15.973Z,92.10
2019-04-26T22:54:46.611Z,92.30
2019-04-26T22:57:16.206Z,92.40
2019-04-26T22:59:50.286Z,92.40
2019-04-26T23:02:26.197Z,92.50
2019-04-26T23:04:50.113Z,92.60
2019-04-26T23:07:24.731Z,92.60
2019-04-26T23:09:55.128Z,92.70
2019-04-26T23:12:39.646Z,92.70
2019-04-26T23:15:30.198Z,92.80
2019-04-26T23:18:19.087Z,92.80
2019-04-26T23:20:53.299Z,92.90
2019-04-26T23:23:23.647Z,93.00
2019-04-26T23:25:53.300Z,93.00
2019-04-26T23:28:22.749Z,93.10
2019-04-26T23:30:53.094Z,93.20
2019-04-26T23:33:23.937Z,93.30
2019-04-26T23:35:53.575Z,93.20
2019-04-26T23:38:23.449Z,93.20
2019-04-26T23:40:53.164Z,93.30
2019-04-26T23:43:25.547Z,93.30
2019-04-26T23:45:53.732Z,93.40
2019-04-26T23:48:23.176Z,93.40
2019-04-26T23:50:54.450Z,93.40
2019-04-26T23:53:24.165Z,93.50
2019-04-26T23:55:53.666Z,93.50
2019-04-26T23:58:23.325Z,93.60
